NCAR-RAP Real-Time Weather Data

Output produced by METARs form (06 May 2021  15:46 UTC)
found at http://weather.rap.ucar.edu/surface/
 
KOTH 061520Z 14006KT 10SM SCT012 BKN041 OVC055 11/08 A3002 RMK AO2
KOTH 061456Z 16005KT 10SM BKN012 10/08 A3002 RMK AO2 SLP166 T01000078 53010
KOTH 061356Z 16006KT 10SM OVC010 09/08 A3000 RMK AO2 CIG 008V014 SLP159 T00940078
KOTH 061354Z 16005KT 10SM OVC010 09/08 A3000 RMK AO2 CIG 008V014
KOTH 061256Z AUTO VRB06KT 10SM OVC008 09/08 A2999 RMK AO2 SLP156 T00890078
KOTH 061156Z AUTO 23005KT 10SM OVC008 09/08 A2999 RMK AO2 SLP155 T00940078 10094 20083 55000
KOTH 061056Z AUTO 18004KT 10SM OVC006 09/08 A2999 RMK AO2 CIG 006V009 SLP153 T00890078
KOTH 061022Z AUTO 21009KT 10SM OVC006 09/08 A2998 RMK AO2
KOTH 060956Z AUTO 18004KT 10SM OVC004 09/08 A2999 RMK AO2 SLP154 T00890078
KOTH 060904Z AUTO 20006KT 10SM OVC004 09/08 A2999 RMK AO2
KOTH 060856Z AUTO 21007KT 10SM OVC006 08/08 A2999 RMK AO2 CIG 004V007 SLP155 T00830078 53004
KOTH 060848Z AUTO 21005KT 10SM OVC006 08/08 A2999 RMK AO2
KOTH 060756Z AUTO 26007KT 9SM BKN004 09/08 A2998 RMK AO2 CIG 003V007 SLP153 T00890083 401670061
KOTH 060750Z AUTO 26007KT 10SM BKN004 09/08 A2999 RMK AO2 CIG 003V007 401670061
KOTH 060742Z AUTO 24004KT 10SM SCT008 09/08 A2998 RMK AO2
KOTH 060656Z AUTO 22003KT 10SM CLR 09/08 A2997 RMK AO2 SLP148 T00890078
KOTH 060556Z AUTO 00000KT 10SM FEW006 09/09 A2998 RMK AO2 SLP150 T00940089 10156 20089 51018
KOTH 060456Z AUTO 26005KT 10SM CLR 10/09 A2996 RMK AO2 SLP146 T01000089
KOTH 060356Z AUTO 28006KT 10SM CLR 11/09 A2994 RMK AO2 SLP139 T01060094
KOTH 060256Z 28006KT 8SM CLR 13/10 A2992 RMK AO2 SLP133 T01280100 56007